Time,TemperatureF,DewpointF,PressureIn,WindDirection,WindDirectionDegrees,WindSpeedMPH,WindSpeedGustMPH,Humidity,HourlyPrecipIn,Conditions,Clouds,dailyrainin,SoftwareType,DateUTC
2013-08-05 00:00:00,66.0,53.0,29.97,WNW,293,6.0,10.0,64,0.00,,,-99.99,,2013-08-05 04:00:00,
2013-08-05 00:32:00,66.0,53.0,29.97,WNW,293,6.0,10.0,64,0.00,,,-99.99,,2013-08-05 04:32:00,
2013-08-05 00:43:00,66.0,53.0,29.97,WNW,293,6.0,10.0,64,0.00,,,-99.99,,2013-08-05 04:43:00,
2013-08-05 00:52:00,66.0,53.0,29.97,WNW,293,6.0,10.0,64,0.00,,,-99.99,,2013-08-05 04:52:00,
2013-08-05 01:00:00,64.0,52.0,29.97,WNW,294,5.0,13.0,64,0.00,,,-99.99,,2013-08-05 05:00:00,
2013-08-05 01:32:00,64.0,52.0,29.97,WNW,294,5.0,13.0,64,0.00,,,-99.99,,2013-08-05 05:32:00,
2013-08-05 01:43:00,64.0,52.0,29.97,WNW,294,5.0,13.0,64,0.00,,,-99.99,,2013-08-05 05:43:00,
2013-08-05 01:53:00,64.0,52.0,29.97,WNW,294,5.0,13.0,64,0.00,,,-99.99,,2013-08-05 05:53:00,
2013-08-05 02:00:00,64.0,51.0,29.98,WNW,296,9.0,13.0,64,0.00,,,-99.99,,2013-08-05 06:00:00,
2013-08-05 02:32:00,64.0,51.0,29.98,WNW,296,9.0,13.0,64,0.00,,,-99.99,,2013-08-05 06:32:00,
2013-08-05 02:43:00,64.0,51.0,29.98,WNW,296,9.0,13.0,64,0.00,,,-99.99,,2013-08-05 06:43:00,
2013-08-05 02:52:00,64.0,51.0,29.98,WNW,296,9.0,13.0,64,0.00,,,-99.99,,2013-08-05 06:52:00,
2013-08-05 03:00:00,62.0,51.0,29.98,WNW,283,9.0,14.0,66,0.00,,,-99.99,,2013-08-05 07:00:00,
2013-08-05 03:33:00,62.0,51.0,29.98,WNW,283,9.0,14.0,66,0.00,,,-99.99,,2013-08-05 07:33:00,
2013-08-05 03:43:00,62.0,51.0,29.98,WNW,283,9.0,14.0,66,0.00,,,-99.99,,2013-08-05 07:43:00,
2013-08-05 03:53:00,62.0,51.0,29.98,WNW,283,9.0,14.0,66,0.00,,,-99.99,,2013-08-05 07:53:00,
2013-08-05 04:34:00,61.0,51.0,29.99,WNW,301,10.0,13.0,70,0.00,,,-99.99,,2013-08-05 08:34:00,
2013-08-05 04:52:00,61.0,51.0,29.99,WNW,301,10.0,13.0,70,0.00,,,-99.99,,2013-08-05 08:52:00,
2013-08-05 05:00:00,60.0,51.0,30.00,WNW,283,9.0,12.0,72,0.00,,,-99.99,,2013-08-05 09:00:00,
2013-08-05 05:43:00,60.0,51.0,30.00,WNW,283,9.0,12.0,72,0.00,,,-99.99,,2013-08-05 09:43:00,
2013-08-05 05:48:00,60.0,51.0,30.00,WNW,283,9.0,12.0,72,0.00,,,-99.99,,2013-08-05 09:48:00,
2013-08-05 06:00:00,60.0,51.0,30.02,WNW,298,10.0,15.0,73,0.00,,,-99.99,,2013-08-05 10:00:00,
2013-08-05 06:37:00,60.0,51.0,30.02,WNW,298,10.0,15.0,73,0.00,,,-99.99,,2013-08-05 10:37:00,
2013-08-05 06:50:00,60.0,51.0,30.02,WNW,298,10.0,15.0,73,0.00,,,-99.99,,2013-08-05 10:50:00,
2013-08-05 07:00:00,61.0,52.0,30.04,NW,314,7.0,-999.0,73,-99.99,,,-99.99,,2013-08-05 11:00:00,
2013-08-05 07:38:00,61.0,52.0,30.04,NW,314,7.0,-999.0,73,-99.99,,,-99.99,,2013-08-05 11:38:00,
2013-08-05 07:54:00,61.0,52.0,30.04,NW,314,7.0,-999.0,73,-99.99,,,-99.99,,2013-08-05 11:54:00,
2013-08-05 08:00:00,65.0,54.0,30.04,NW,320,11.0,14.0,68,0.00,,,-99.99,,2013-08-05 12:00:00,
2013-08-05 08:34:00,65.0,54.0,30.04,NW,320,11.0,14.0,68,0.00,,,-99.99,,2013-08-05 12:34:00,
2013-08-05 08:53:00,65.0,54.0,30.04,NW,320,11.0,14.0,68,0.00,,,-99.99,,2013-08-05 12:53:00,
2013-08-05 09:00:00,68.0,55.0,30.05,North,351,6.0,15.0,62,0.00,,,-99.99,,2013-08-05 13:00:00,
2013-08-05 09:40:00,68.0,55.0,30.05,North,351,6.0,15.0,62,0.00,,,-99.99,,2013-08-05 13:40:00,
2013-08-05 09:47:00,68.0,55.0,30.05,North,351,6.0,15.0,62,0.00,,,-99.99,,2013-08-05 13:47:00,
2013-08-05 09:54:00,68.0,55.0,30.05,North,351,6.0,15.0,62,0.00,,,-99.99,,2013-08-05 13:54:00,
2013-08-05 10:00:00,71.0,53.0,30.06,North,0,8.0,13.0,53,0.00,,,-99.99,,2013-08-05 14:00:00,
2013-08-05 10:42:00,71.0,53.0,30.06,North,0,8.0,13.0,53,0.00,,,-99.99,,2013-08-05 14:42:00,
2013-08-05 10:49:00,71.0,53.0,30.06,North,0,8.0,13.0,53,0.00,,,-99.99,,2013-08-05 14:49:00,
2013-08-05 11:00:00,74.0,48.0,30.06,North,10,9.0,14.0,40,0.00,,,-99.99,,2013-08-05 15:00:00,
2013-08-05 11:40:00,74.0,48.0,30.06,North,10,9.0,14.0,40,0.00,,,-99.99,,2013-08-05 15:40:00,
2013-08-05 11:51:00,74.0,48.0,30.06,North,10,9.0,14.0,40,0.00,,,-99.99,,2013-08-05 15:51:00,
2013-08-05 12:00:00,74.0,46.0,30.05,North,3,11.0,17.0,37,0.00,,,-99.99,,2013-08-05 16:00:00,
2013-08-05 12:34:00,74.0,46.0,30.05,North,3,11.0,17.0,37,0.00,,,-99.99,,2013-08-05 16:34:00,
2013-08-05 12:45:00,74.0,46.0,30.05,North,3,11.0,17.0,37,0.00,,,-99.99,,2013-08-05 16:45:00,
2013-08-05 12:59:00,74.0,46.0,30.05,North,3,11.0,17.0,37,0.00,,,-99.99,,2013-08-05 16:59:00,
2013-08-05 13:00:00,75.0,46.0,30.04,NNW,342,8.0,17.0,36,0.00,,,-99.99,,2013-08-05 17:00:00,
2013-08-05 13:39:00,75.0,46.0,30.04,NNW,342,8.0,17.0,36,0.00,,,-99.99,,2013-08-05 17:39:00,
2013-08-05 13:50:00,75.0,46.0,30.04,NNW,342,8.0,17.0,36,0.00,,,-99.99,,2013-08-05 17:50:00,
2013-08-05 14:00:00,77.0,49.0,30.02,WNW,292,12.0,14.0,38,0.00,,,-99.99,,2013-08-05 18:00:00,
2013-08-05 14:40:00,77.0,49.0,30.02,WNW,292,12.0,14.0,38,0.00,,,-99.99,,2013-08-05 18:40:00,
2013-08-05 14:54:00,77.0,49.0,30.02,WNW,292,12.0,14.0,38,0.00,,,-99.99,,2013-08-05 18:54:00,
2013-08-05 15:00:00,75.0,52.0,30.02,East,90,9.0,-999.0,44,-99.99,,,-99.99,,2013-08-05 19:00:00,
2013-08-05 15:39:00,75.0,52.0,30.02,East,90,9.0,-999.0,44,-99.99,,,-99.99,,2013-08-05 19:39:00,
2013-08-05 15:54:00,75.0,52.0,30.02,East,90,9.0,-999.0,44,-99.99,,,-99.99,,2013-08-05 19:54:00,
2013-08-05 16:00:00,75.0,52.0,30.02,SE,134,5.0,12.0,44,0.00,,,-99.99,,2013-08-05 20:00:00,
2013-08-05 16:48:00,75.0,52.0,30.02,SE,134,5.0,12.0,44,0.00,,,-99.99,,2013-08-05 20:48:00,
2013-08-05 17:00:00,74.0,52.0,30.01,SSE,147,9.0,13.0,47,0.00,,,-99.99,,2013-08-05 21:00:00,
2013-08-05 17:48:00,74.0,52.0,30.01,SSE,147,9.0,13.0,47,0.00,,,-99.99,,2013-08-05 21:48:00,
2013-08-05 17:54:00,74.0,52.0,30.01,SSE,147,9.0,13.0,47,0.00,,,-99.99,,2013-08-05 21:54:00,
2013-08-05 18:00:00,72.0,55.0,30.02,SSE,167,10.0,14.0,55,0.00,,,-99.99,,2013-08-05 22:00:00,
2013-08-05 18:38:00,72.0,55.0,30.02,SSE,167,10.0,14.0,55,0.00,,,-99.99,,2013-08-05 22:38:00,
2013-08-05 18:45:00,72.0,55.0,30.02,SSE,167,10.0,14.0,55,0.00,,,-99.99,,2013-08-05 22:45:00,
2013-08-05 18:53:00,72.0,55.0,30.02,SSE,167,10.0,14.0,55,0.00,,,-99.99,,2013-08-05 22:53:00,
2013-08-05 19:00:00,71.0,55.0,30.03,SSE,157,7.0,14.0,58,0.00,,,-99.99,,2013-08-05 23:00:00,
2013-08-05 19:33:00,71.0,55.0,30.03,SSE,157,7.0,14.0,58,0.00,,,-99.99,,2013-08-05 23:33:00,
2013-08-05 19:46:00,71.0,55.0,30.03,SSE,157,7.0,14.0,58,0.00,,,-99.99,,2013-08-05 23:46:00,
2013-08-05 20:00:00,70.0,57.0,30.04,SSW,197,7.0,-999.0,62,-99.99,,,-99.99,,2013-08-06 00:00:00,
2013-08-05 20:37:00,70.0,57.0,30.04,SSW,197,7.0,-999.0,62,-99.99,,,-99.99,,2013-08-06 00:37:00,
2013-08-05 20:57:00,70.0,57.0,30.04,SSW,197,7.0,-999.0,62,-99.99,,,-99.99,,2013-08-06 00:57:00,
2013-08-05 21:00:00,70.0,60.0,30.05,SSW,202,5.0,14.0,69,0.00,,,-99.99,,2013-08-06 01:00:00,
2013-08-05 21:53:00,70.0,60.0,30.05,SSW,202,5.0,14.0,69,0.00,,,-99.99,,2013-08-06 01:53:00,
2013-08-05 22:00:00,70.0,61.0,30.05,SSW,193,6.0,9.0,72,0.00,,,-99.99,,2013-08-06 02:00:00,
2013-08-05 22:33:00,70.0,61.0,30.05,SSW,193,6.0,9.0,72,0.00,,,-99.99,,2013-08-06 02:33:00,
2013-08-05 22:53:00,70.0,61.0,30.05,SSW,193,6.0,9.0,72,0.00,,,-99.99,,2013-08-06 02:53:00,
2013-08-05 23:00:00,70.0,61.0,30.04,SSW,213,4.0,8.0,73,0.00,,,-99.99,,2013-08-06 03:00:00,
2013-08-05 23:35:00,70.0,61.0,30.04,SSW,213,4.0,8.0,73,0.00,,,-99.99,,2013-08-06 03:35:00,
2013-08-05 23:45:00,70.0,61.0,30.04,SSW,213,4.0,8.0,73,0.00,,,-99.99,,2013-08-06 03:45:00,
2013-08-05 23:52:00,70.0,61.0,30.04,SSW,213,4.0,8.0,73,0.00,,,-99.99,,2013-08-06 03:52:00,